createdAt,value
2023-02-18T00:00:48.784Z,994.26
2023-02-18T00:01:48.794Z,994.13
2023-02-18T00:02:50.359Z,994.28
2023-02-18T00:03:48.760Z,994.19
2023-02-18T00:04:48.716Z,994.27
2023-02-18T00:05:48.762Z,994.24
2023-02-18T00:06:48.733Z,994.25
2023-02-18T00:07:48.697Z,994.28
2023-02-18T00:08:48.735Z,994.22
2023-02-18T00:09:48.677Z,994.24
2023-02-18T00:10:48.688Z,994.18
2023-02-18T00:11:48.653Z,994.30
2023-02-18T00:12:48.639Z,994.24
2023-02-18T00:13:48.633Z,994.28
2023-02-18T00:14:48.646Z,994.25
2023-02-18T00:15:48.644Z,994.33
2023-02-18T00:16:48.603Z,994.31
2023-02-18T00:17:48.587Z,994.37
2023-02-18T00:18:48.590Z,994.40
2023-02-18T00:19:48.593Z,994.37
2023-02-18T00:20:48.577Z,994.29
2023-02-18T00:21:48.590Z,994.36
2023-02-18T00:22:48.532Z,994.32
2023-02-18T00:23:48.555Z,994.30
2023-02-18T00:24:48.584Z,994.30
2023-02-18T00:25:48.509Z,994.34
2023-02-18T00:26:48.505Z,994.35
2023-02-18T00:27:48.536Z,994.29
2023-02-18T00:28:48.500Z,994.32
2023-02-18T00:29:48.496Z,994.31
2023-02-18T00:30:48.484Z,994.28
2023-02-18T00:31:48.584Z,994.35
2023-02-18T00:32:48.465Z,994.33
2023-02-18T00:33:48.446Z,994.32
2023-02-18T00:34:48.439Z,994.29
2023-02-18T00:35:48.432Z,994.34
2023-02-18T00:36:48.471Z,994.19
2023-02-18T00:37:48.394Z,994.27
2023-02-18T00:38:48.409Z,994.29
2023-02-18T00:39:48.388Z,994.36
2023-02-18T00:40:48.361Z,994.38
2023-02-18T00:41:48.369Z,994.29
2023-02-18T00:42:48.349Z,994.33
2023-02-18T00:43:48.337Z,994.32
2023-02-18T00:44:48.341Z,994.32
2023-02-18T00:45:48.327Z,994.26
2023-02-18T00:46:48.462Z,994.27
2023-02-18T00:47:48.315Z,994.20
2023-02-18T00:48:48.353Z,994.31
2023-02-18T00:49:48.310Z,994.26
2023-02-18T00:50:48.289Z,994.18
2023-02-18T00:51:48.258Z,994.18
2023-02-18T00:52:48.261Z,993.97
2023-02-18T00:53:48.248Z,994.16
2023-02-18T00:54:48.245Z,994.13
2023-02-18T00:55:48.211Z,994.10
2023-02-18T00:56:48.209Z,994.13
2023-02-18T00:57:48.202Z,994.15
2023-02-18T00:58:48.201Z,994.08
2023-02-18T00:59:48.164Z,994.14
2023-02-18T01:00:48.170Z,994.09
2023-02-18T01:01:48.172Z,994.09
2023-02-18T01:02:48.143Z,994.15
2023-02-18T01:03:48.156Z,994.12
2023-02-18T01:04:48.175Z,994.15
2023-02-18T01:05:48.156Z,994.19
2023-02-18T01:06:48.107Z,994.10
2023-02-18T01:07:48.102Z,994.23
2023-02-18T01:08:48.096Z,994.20
2023-02-18T01:09:48.090Z,994.19
2023-02-18T01:10:48.068Z,994.20
2023-02-18T01:11:48.065Z,994.25
2023-02-18T01:12:48.051Z,994.13
2023-02-18T01:13:48.039Z,994.13
2023-02-18T01:14:48.058Z,994.23
2023-02-18T01:15:48.081Z,994.30
2023-02-18T01:16:48.021Z,994.19
2023-02-18T01:17:47.999Z,994.21
2023-02-18T01:18:47.993Z,994.26
2023-02-18T01:19:48.019Z,994.15
2023-02-18T01:20:47.985Z,994.23
2023-02-18T01:21:47.964Z,994.15
2023-02-18T01:22:47.968Z,994.20
2023-02-18T01:23:47.952Z,994.17
2023-02-18T01:24:47.938Z,994.17
2023-02-18T01:25:47.950Z,994.18
2023-02-18T01:26:47.975Z,994.14
2023-02-18T01:27:47.899Z,994.22
2023-02-18T01:28:47.911Z,994.10
2023-02-18T01:29:47.886Z,994.24
2023-02-18T01:30:47.873Z,994.18
2023-02-18T01:31:48.039Z,994.26
2023-02-18T01:32:47.861Z,994.17
2023-02-18T01:33:47.853Z,994.13
2023-02-18T01:34:47.853Z,994.13
2023-02-18T01:35:47.813Z,994.15
2023-02-18T01:36:47.807Z,994.12
2023-02-18T01:37:47.883Z,994.24
2023-02-18T01:38:47.811Z,994.23
2023-02-18T01:39:47.795Z,994.24
2023-02-18T01:40:47.785Z,994.05
2023-02-18T01:41:47.835Z,994.14
2023-02-18T01:42:47.746Z,994.12
2023-02-18T01:43:47.750Z,994.14
2023-02-18T01:44:47.754Z,994.02
2023-02-18T01:45:47.737Z,994.06
2023-02-18T01:46:47.853Z,994.05
2023-02-18T01:47:47.709Z,994.03
2023-02-18T01:48:47.696Z,994.10
2023-02-18T01:49:47.702Z,994.04
2023-02-18T01:50:47.680Z,994.14
2023-02-18T01:51:47.657Z,994.16
2023-02-18T01:52:48.641Z,994.15
2023-02-18T01:53:47.634Z,994.14
2023-02-18T01:54:47.650Z,994.11
2023-02-18T01:55:47.656Z,994.07
2023-02-18T01:56:47.729Z,994.06
2023-02-18T01:57:47.621Z,994.00
2023-02-18T01:58:47.618Z,993.99
2023-02-18T01:59:47.567Z,994.05
2023-02-18T02:00:47.615Z,994.03
2023-02-18T02:01:48.636Z,994.09
2023-02-18T02:02:47.586Z,994.04
2023-02-18T02:03:47.542Z,993.99
2023-02-18T02:04:47.549Z,994.08
2023-02-18T02:05:47.524Z,994.11
2023-02-18T02:06:47.514Z,994.05
2023-02-18T02:07:47.518Z,994.09
2023-02-18T02:08:47.490Z,994.06
2023-02-18T02:09:47.496Z,994.04
2023-02-18T02:10:47.474Z,994.05
2023-02-18T02:11:47.492Z,994.12
2023-02-18T02:12:47.477Z,994.13
2023-02-18T02:13:47.447Z,994.11
2023-02-18T02:14:47.449Z,994.07
2023-02-18T02:15:47.430Z,994.15
2023-02-18T02:16:47.425Z,994.26
2023-02-18T02:17:47.428Z,994.20
2023-02-18T02:18:48.389Z,994.17
2023-02-18T02:19:47.417Z,994.22
2023-02-18T02:20:47.443Z,994.25
2023-02-18T02:21:47.349Z,994.26
2023-02-18T02:22:47.369Z,994.15
2023-02-18T02:23:47.338Z,994.19
2023-02-18T02:24:47.343Z,994.13
2023-02-18T02:25:47.356Z,994.08
2023-02-18T02:26:47.316Z,994.19
2023-02-18T02:27:47.298Z,994.14
2023-02-18T02:28:47.296Z,994.18
2023-02-18T02:29:47.294Z,994.14
2023-02-18T02:30:47.415Z,994.15
2023-02-18T02:31:47.287Z,994.16
2023-02-18T02:32:47.278Z,994.12
2023-02-18T02:33:47.276Z,994.16
2023-02-18T02:34:47.226Z,994.12
2023-02-18T02:35:47.224Z,994.07
2023-02-18T02:36:47.264Z,994.08
2023-02-18T02:37:47.198Z,994.04
2023-02-18T02:38:47.212Z,994.07
2023-02-18T02:39:47.184Z,994.00
2023-02-18T02:40:47.172Z,993.99
2023-02-18T02:41:47.176Z,993.99
2023-02-18T02:42:47.166Z,994.02
2023-02-18T02:43:47.141Z,994.01
2023-02-18T02:44:47.145Z,994.07
2023-02-18T02:45:47.152Z,994.00
2023-02-18T02:46:47.128Z,994.00
2023-02-18T02:47:47.111Z,994.03
2023-02-18T02:48:47.159Z,994.00
2023-02-18T02:49:47.095Z,994.02
2023-02-18T02:50:47.092Z,994.00
2023-02-18T02:51:47.070Z,993.98
2023-02-18T02:52:47.050Z,994.01
2023-02-18T02:53:47.050Z,993.96
2023-02-18T02:54:47.062Z,994.04
2023-02-18T02:55:47.034Z,994.01
2023-02-18T02:56:47.020Z,994.01
2023-02-18T02:57:47.005Z,994.07
2023-02-18T02:58:46.999Z,994.06
2023-02-18T02:59:47.011Z,994.05
2023-02-18T03:00:47.006Z,994.01
2023-02-18T03:01:46.971Z,994.01
2023-02-18T03:02:46.999Z,994.03
2023-02-18T03:03:46.962Z,994.02
2023-02-18T03:04:46.939Z,994.06
2023-02-18T03:05:46.962Z,994.03
2023-02-18T03:06:46.920Z,994.05
2023-02-18T03:07:46.922Z,994.09
2023-02-18T03:08:46.891Z,994.08
2023-02-18T03:09:46.903Z,994.11
2023-02-18T03:10:46.898Z,994.14
2023-02-18T03:11:46.894Z,994.15
2023-02-18T03:12:46.861Z,994.09
2023-02-18T03:13:46.864Z,994.03
2023-02-18T03:14:46.875Z,993.99
2023-02-18T03:15:46.836Z,994.06
2023-02-18T03:16:46.858Z,994.08
2023-02-18T03:17:46.819Z,994.11
2023-02-18T03:18:46.800Z,994.09
2023-02-18T03:19:46.790Z,994.14
2023-02-18T03:20:46.822Z,994.14
2023-02-18T03:21:46.779Z,994.15
2023-02-18T03:22:46.766Z,994.13
2023-02-18T03:23:46.755Z,994.14
2023-02-18T03:24:46.772Z,994.04
2023-02-18T03:25:46.758Z,994.13
2023-02-18T03:26:46.729Z,994.05
2023-02-18T03:27:46.714Z,994.09
2023-02-18T03:28:46.702Z,994.06
2023-02-18T03:29:47.721Z,994.00
2023-02-18T03:30:46.694Z,993.98
2023-02-18T03:31:46.772Z,993.92
2023-02-18T03:32:46.666Z,993.89
2023-02-18T03:33:46.672Z,993.89
2023-02-18T03:34:46.675Z,993.78
2023-02-18T03:35:46.656Z,993.75
2023-02-18T03:36:46.633Z,993.77
2023-02-18T03:37:46.645Z,993.79
2023-02-18T03:38:46.601Z,993.70
2023-02-18T03:39:46.621Z,993.68
2023-02-18T03:40:46.618Z,993.71
2023-02-18T03:41:46.618Z,993.77
2023-02-18T03:42:46.592Z,993.77
2023-02-18T03:43:48.064Z,993.76
2023-02-18T03:44:46.601Z,993.82
2023-02-18T03:45:46.662Z,993.72
2023-02-18T03:46:46.538Z,993.78
2023-02-18T03:47:46.530Z,993.81
2023-02-18T03:48:46.520Z,993.85
2023-02-18T03:49:46.520Z,993.88
2023-02-18T03:50:46.491Z,993.80
2023-02-18T03:51:46.494Z,993.79
2023-02-18T03:52:46.487Z,993.78
2023-02-18T03:53:46.467Z,993.84
2023-02-18T03:54:46.460Z,993.81
2023-02-18T03:55:46.486Z,993.80
2023-02-18T03:56:47.438Z,993.77
2023-02-18T03:57:46.420Z,993.73
2023-02-18T03:58:46.414Z,993.76
2023-02-18T03:59:46.415Z,993.75
2023-02-18T04:00:46.428Z,993.68
2023-02-18T04:01:46.400Z,993.67
2023-02-18T04:02:46.374Z,993.65
2023-02-18T04:03:46.363Z,993.60
2023-02-18T04:04:46.337Z,993.57
2023-02-18T04:05:46.346Z,993.52
2023-02-18T04:06:46.351Z,993.55
2023-02-18T04:07:46.321Z,993.58
2023-02-18T04:08:46.303Z,993.61
2023-02-18T04:09:46.289Z,993.65
2023-02-18T04:10:46.320Z,993.69
2023-02-18T04:11:46.275Z,993.63
2023-02-18T04:12:46.270Z,993.65
2023-02-18T04:13:46.252Z,993.64
2023-02-18T04:14:46.247Z,993.64
2023-02-18T04:15:46.255Z,993.61
2023-02-18T04:16:46.239Z,993.62
2023-02-18T04:17:47.229Z,993.60
2023-02-18T04:18:46.230Z,993.61
2023-02-18T04:19:46.219Z,993.54
2023-02-18T04:20:46.217Z,993.49
2023-02-18T04:21:46.193Z,993.54
2023-02-18T04:22:46.160Z,993.42
2023-02-18T04:23:46.157Z,993.43
2023-02-18T04:24:46.155Z,993.43
2023-02-18T04:25:46.158Z,993.39
2023-02-18T04:26:46.136Z,993.47
2023-02-18T04:27:46.118Z,993.44
2023-02-18T04:28:46.109Z,993.36
2023-02-18T04:29:47.249Z,993.27
2023-02-18T04:30:46.205Z,993.26
2023-02-18T04:31:46.256Z,993.27
2023-02-18T04:32:46.075Z,993.23
2023-02-18T04:33:46.069Z,993.22
2023-02-18T04:34:46.109Z,993.27
2023-02-18T04:35:46.039Z,993.26
2023-02-18T04:36:46.027Z,993.22
2023-02-18T04:37:46.020Z,993.31
2023-02-18T04:38:46.019Z,993.27
2023-02-18T04:39:46.039Z,993.32
2023-02-18T04:40:45.995Z,993.26
2023-02-18T04:41:45.967Z,993.28
2023-02-18T04:42:45.965Z,993.23
2023-02-18T04:43:45.981Z,993.28
2023-02-18T04:44:47.462Z,993.33
2023-02-18T04:45:46.975Z,993.24
2023-02-18T04:46:45.942Z,993.29
2023-02-18T04:47:45.930Z,993.22
2023-02-18T04:48:45.940Z,993.28
2023-02-18T04:49:45.902Z,993.18
2023-02-18T04:50:45.914Z,993.13
2023-02-18T04:51:45.879Z,993.12
2023-02-18T04:52:45.876Z,993.13
2023-02-18T04:53:45.890Z,993.09
2023-02-18T04:54:45.879Z,993.18
2023-02-18T04:55:45.867Z,993.17
2023-02-18T04:56:45.877Z,993.15
2023-02-18T04:57:45.823Z,993.15
2023-02-18T04:58:45.852Z,993.12
2023-02-18T04:59:45.827Z,993.14
2023-02-18T05:00:45.805Z,993.15
2023-02-18T05:01:45.790Z,993.18
2023-02-18T05:02:45.775Z,993.20
2023-02-18T05:03:45.787Z,993.14
2023-02-18T05:04:45.792Z,993.20
2023-02-18T05:05:45.766Z,993.23
2023-02-18T05:06:45.788Z,993.18
2023-02-18T05:07:45.802Z,993.23
2023-02-18T05:08:45.737Z,993.11
2023-02-18T05:09:45.724Z,993.11
2023-02-18T05:10:45.705Z,993.07
2023-02-18T05:11:45.709Z,993.06
2023-02-18T05:12:45.726Z,993.05
2023-02-18T05:13:45.674Z,993.01
2023-02-18T05:14:45.660Z,992.95
2023-02-18T05:15:45.726Z,992.97
2023-02-18T05:16:45.640Z,992.94
2023-02-18T05:17:45.669Z,992.98
2023-02-18T05:18:45.644Z,992.93
2023-02-18T05:19:45.627Z,992.95
2023-02-18T05:20:45.623Z,992.94
2023-02-18T05:21:45.607Z,992.94
2023-02-18T05:22:45.629Z,992.88
2023-02-18T05:23:45.598Z,992.94
2023-02-18T05:24:45.579Z,992.93
2023-02-18T05:25:45.591Z,992.96
2023-02-18T05:26:45.551Z,992.88
2023-02-18T05:27:45.576Z,992.94
2023-02-18T05:28:45.543Z,992.90
2023-02-18T05:29:45.539Z,992.86
2023-02-18T05:30:45.527Z,992.89
2023-02-18T05:31:45.624Z,992.90
2023-02-18T05:32:45.495Z,992.91
2023-02-18T05:33:45.513Z,992.87
2023-02-18T05:34:45.477Z,992.89
2023-02-18T05:35:45.492Z,992.92
2023-02-18T05:36:45.464Z,992.86
2023-02-18T05:37:45.462Z,992.90
2023-02-18T05:38:45.453Z,992.87
2023-02-18T05:39:45.447Z,992.86
2023-02-18T05:40:45.427Z,992.78
2023-02-18T05:41:45.419Z,992.90
2023-02-18T05:42:45.414Z,992.79
2023-02-18T05:43:45.389Z,992.75
2023-02-18T05:44:45.419Z,992.72
2023-02-18T05:45:45.365Z,992.68
2023-02-18T05:46:45.442Z,992.70
2023-02-18T05:47:45.365Z,992.72
2023-02-18T05:48:45.336Z,992.68
2023-02-18T05:49:45.383Z,992.66
2023-02-18T05:50:45.331Z,992.67
2023-02-18T05:51:45.327Z,992.68
2023-02-18T05:52:45.303Z,992.70
2023-02-18T05:53:45.295Z,992.56
2023-02-18T05:54:45.286Z,992.63
2023-02-18T05:55:45.290Z,992.67
2023-02-18T05:56:45.247Z,992.65
2023-02-18T05:57:45.257Z,992.59
2023-02-18T05:58:45.235Z,992.56
2023-02-18T05:59:45.247Z,992.63
2023-02-18T06:00:45.233Z,992.55
2023-02-18T06:01:45.221Z,992.51
2023-02-18T06:02:45.276Z,992.51
2023-02-18T06:03:45.213Z,992.46
2023-02-18T06:04:45.169Z,992.48
2023-02-18T06:05:45.200Z,992.49
2023-02-18T06:06:45.187Z,992.56
2023-02-18T06:07:45.172Z,992.49
2023-02-18T06:08:45.181Z,992.53
2023-02-18T06:09:45.135Z,992.49
2023-02-18T06:10:45.111Z,992.45
2023-02-18T06:11:45.125Z,992.47
2023-02-18T06:12:45.113Z,992.49
2023-02-18T06:13:45.104Z,992.47
2023-02-18T06:14:45.091Z,992.48
2023-02-18T06:15:45.158Z,992.51
2023-02-18T06:16:45.086Z,992.50
2023-02-18T06:17:45.065Z,992.46
2023-02-18T06:18:45.065Z,992.47
2023-02-18T06:19:45.027Z,992.56
2023-02-18T06:20:45.021Z,992.49
2023-02-18T06:21:45.025Z,992.42
2023-02-18T06:22:44.999Z,992.47
2023-02-18T06:23:45.002Z,992.48
2023-02-18T06:24:44.994Z,992.46
2023-02-18T06:25:44.981Z,992.46
2023-02-18T06:26:44.963Z,992.46
2023-02-18T06:27:44.986Z,992.43
2023-02-18T06:28:44.916Z,992.40
2023-02-18T06:29:44.948Z,992.42
2023-02-18T06:30:44.905Z,992.41
2023-02-18T06:31:45.206Z,992.41
2023-02-18T06:32:44.898Z,992.39
2023-02-18T06:33:44.876Z,992.30
2023-02-18T06:34:44.898Z,992.32
2023-02-18T06:35:44.876Z,992.33
2023-02-18T06:36:44.874Z,992.34
2023-02-18T06:37:44.885Z,992.34
2023-02-18T06:38:44.859Z,992.36
2023-02-18T06:39:44.827Z,992.40
2023-02-18T06:40:44.832Z,992.33
2023-02-18T06:41:44.823Z,992.33
2023-02-18T06:42:44.805Z,992.23
2023-02-18T06:43:44.780Z,992.23
2023-02-18T06:44:44.809Z,992.15
2023-02-18T06:45:44.766Z,992.20
2023-02-18T06:46:44.800Z,992.15
2023-02-18T06:47:44.745Z,992.21
2023-02-18T06:48:45.764Z,992.18
2023-02-18T06:49:44.750Z,992.16
2023-02-18T06:50:44.713Z,992.08
2023-02-18T06:51:44.703Z,992.10
2023-02-18T06:52:44.684Z,991.94
2023-02-18T06:53:44.697Z,991.98
2023-02-18T06:54:44.674Z,992.03
2023-02-18T06:55:44.681Z,991.97
2023-02-18T06:56:44.700Z,991.93
2023-02-18T06:57:44.642Z,991.93
2023-02-18T06:58:44.614Z,991.85
2023-02-18T06:59:44.596Z,991.86
2023-02-18T07:00:45.678Z,991.86
2023-02-18T07:01:44.612Z,991.87
2023-02-18T07:02:44.589Z,991.89
2023-02-18T07:03:44.612Z,991.85
2023-02-18T07:04:44.593Z,991.82
2023-02-18T07:05:44.566Z,991.80
2023-02-18T07:06:44.564Z,991.87
2023-02-18T07:07:44.539Z,991.85
2023-02-18T07:08:44.530Z,991.84
2023-02-18T07:09:44.537Z,991.85
2023-02-18T07:10:44.499Z,991.78
2023-02-18T07:11:44.504Z,991.83
2023-02-18T07:12:44.488Z,991.85
2023-02-18T07:13:44.496Z,991.88
2023-02-18T07:14:44.483Z,991.82
2023-02-18T07:15:44.457Z,991.83
2023-02-18T07:16:44.495Z,991.87
2023-02-18T07:17:44.475Z,991.82
2023-02-18T07:18:44.443Z,991.64
2023-02-18T07:19:44.420Z,991.66
2023-02-18T07:20:44.412Z,991.75
2023-02-18T07:21:44.400Z,991.65
2023-02-18T07:22:44.404Z,991.64
2023-02-18T07:23:44.407Z,991.63
2023-02-18T07:24:44.374Z,991.65
2023-02-18T07:25:44.368Z,991.55
2023-02-18T07:26:44.356Z,991.58
2023-02-18T07:27:44.337Z,991.52
2023-02-18T07:28:44.362Z,991.51
2023-02-18T07:29:44.359Z,991.52
2023-02-18T07:30:44.359Z,991.50
2023-02-18T07:31:44.405Z,991.47
2023-02-18T07:32:44.308Z,991.45
2023-02-18T07:33:44.280Z,991.50
2023-02-18T07:34:44.299Z,991.53
2023-02-18T07:35:44.275Z,991.53
2023-02-18T07:36:44.244Z,991.53
2023-02-18T07:37:44.241Z,991.54
2023-02-18T07:38:44.250Z,991.50
2023-02-18T07:39:44.231Z,991.55
2023-02-18T07:40:44.209Z,991.63
2023-02-18T07:41:44.206Z,991.58
2023-02-18T07:42:44.222Z,991.54
2023-02-18T07:43:44.206Z,991.56
2023-02-18T07:44:44.180Z,991.58
2023-02-18T07:45:44.179Z,991.58
2023-02-18T07:46:44.883Z,991.61
2023-02-18T07:47:44.126Z,991.53
2023-02-18T07:48:44.160Z,991.57
2023-02-18T07:49:44.131Z,991.58
2023-02-18T07:50:44.109Z,991.59
2023-02-18T07:51:44.106Z,991.56
2023-02-18T07:52:44.107Z,991.55
2023-02-18T07:53:44.113Z,991.52
2023-02-18T07:54:44.105Z,991.58
2023-02-18T07:55:44.074Z,991.57
2023-02-18T07:56:44.074Z,991.60
2023-02-18T07:57:44.042Z,991.57
2023-02-18T07:58:44.054Z,991.63
2023-02-18T07:59:44.049Z,991.61
2023-02-18T08:00:44.038Z,991.60
2023-02-18T08:01:45.047Z,991.61
2023-02-18T08:02:43.991Z,991.63
2023-02-18T08:03:43.991Z,991.75
2023-02-18T08:04:43.978Z,991.71
2023-02-18T08:05:43.995Z,991.69
2023-02-18T08:06:43.962Z,991.68
2023-02-18T08:07:43.963Z,991.70
2023-02-18T08:08:43.931Z,991.69
2023-02-18T08:09:43.947Z,991.77
2023-02-18T08:10:43.930Z,991.62
2023-02-18T08:11:43.900Z,991.72
2023-02-18T08:12:43.905Z,991.67
2023-02-18T08:13:46.123Z,991.70
2023-02-18T08:14:43.905Z,991.71
2023-02-18T08:15:43.882Z,991.68
2023-02-18T08:16:43.949Z,991.64
2023-02-18T08:17:43.845Z,991.63
2023-02-18T08:18:43.875Z,991.66
2023-02-18T08:19:43.845Z,991.65
2023-02-18T08:20:43.828Z,991.68
2023-02-18T08:21:43.848Z,991.66
2023-02-18T08:22:43.816Z,991.63
2023-02-18T08:23:43.811Z,991.64
2023-02-18T08:24:43.774Z,991.67
2023-02-18T08:25:43.769Z,991.63
2023-02-18T08:26:59.206Z,991.67
2023-02-18T08:27:45.756Z,991.60
2023-02-18T08:28:43.777Z,991.58
2023-02-18T08:29:43.739Z,991.58
2023-02-18T08:30:43.911Z,991.62
2023-02-18T08:31:44.815Z,991.60
2023-02-18T08:32:44.750Z,991.58
2023-02-18T08:33:43.721Z,991.60
2023-02-18T08:34:43.679Z,991.64
2023-02-18T08:35:43.672Z,991.58
2023-02-18T08:36:43.681Z,991.53
2023-02-18T08:37:52.664Z,991.57
2023-02-18T08:38:43.648Z,991.52
2023-02-18T08:39:43.633Z,991.46
2023-02-18T08:40:43.620Z,991.52
2023-02-18T08:41:43.643Z,991.47
2023-02-18T08:42:43.624Z,991.46
2023-02-18T08:43:43.616Z,991.50
2023-02-18T08:44:43.588Z,991.49
2023-02-18T08:45:43.619Z,991.49
2023-02-18T08:46:43.690Z,991.56
2023-02-18T08:48:17.284Z,991.56
2023-02-18T08:48:44.669Z,991.56
2023-02-18T08:49:43.580Z,991.51
2023-02-18T08:50:43.536Z,991.54
2023-02-18T08:51:43.541Z,991.51
2023-02-18T08:52:43.513Z,991.57
2023-02-18T08:53:43.502Z,991.53
2023-02-18T08:54:43.500Z,991.55
2023-02-18T08:55:43.480Z,991.50
2023-02-18T08:56:43.508Z,991.48
2023-02-18T08:57:43.453Z,991.43
2023-02-18T08:58:43.454Z,991.39
2023-02-18T08:59:43.430Z,991.58
2023-02-18T09:00:43.437Z,991.45
2023-02-18T09:01:43.515Z,991.54
2023-02-18T09:02:43.414Z,991.41
2023-02-18T09:03:43.406Z,991.43
2023-02-18T09:04:43.386Z,991.44
2023-02-18T09:05:43.371Z,991.43
2023-02-18T09:06:43.378Z,991.49
2023-02-18T09:07:43.378Z,991.45
2023-02-18T09:08:43.361Z,991.51
2023-02-18T09:09:43.339Z,991.48
2023-02-18T09:10:45.995Z,991.51
2023-02-18T09:11:43.330Z,991.54
2023-02-18T09:12:43.342Z,991.58
2023-02-18T09:13:43.292Z,991.51
2023-02-18T09:14:43.306Z,991.53
2023-02-18T09:15:43.297Z,991.60
2023-02-18T09:16:43.267Z,991.49
2023-02-18T09:17:43.254Z,991.62
2023-02-18T09:18:43.250Z,991.57
2023-02-18T09:19:44.242Z,991.61
2023-02-18T09:20:43.238Z,991.67
2023-02-18T09:21:43.204Z,991.65
2023-02-18T09:22:43.207Z,991.62
2023-02-18T09:23:43.207Z,991.57
2023-02-18T09:24:43.192Z,991.59
2023-02-18T09:25:43.152Z,991.70
2023-02-18T09:26:44.186Z,991.71
2023-02-18T09:27:43.167Z,991.58
2023-02-18T09:28:43.135Z,991.61
2023-02-18T09:29:43.184Z,991.52
2023-02-18T09:30:43.161Z,991.48
2023-02-18T09:31:43.205Z,991.54
2023-02-18T09:32:43.097Z,991.44
2023-02-18T09:33:45.580Z,991.50
2023-02-18T09:34:43.115Z,991.51
2023-02-18T09:35:43.072Z,991.47
2023-02-18T09:36:43.091Z,991.55
2023-02-18T09:37:43.064Z,991.52
2023-02-18T09:38:43.041Z,991.41
2023-02-18T09:39:43.024Z,991.50
2023-02-18T09:40:43.018Z,991.52
2023-02-18T09:41:42.993Z,991.41
2023-02-18T09:42:43.035Z,991.38
2023-02-18T09:43:42.985Z,991.44
2023-02-18T09:44:42.991Z,991.38
2023-02-18T09:46:14.885Z,991.45
2023-02-18T09:46:42.956Z,991.42
2023-02-18T09:47:42.940Z,991.46
2023-02-18T09:48:42.957Z,991.43
2023-02-18T09:49:42.925Z,991.34
2023-02-18T09:50:42.910Z,991.40
2023-02-18T09:51:42.918Z,991.36
2023-02-18T09:52:42.908Z,991.36
2023-02-18T09:53:42.885Z,991.36
2023-02-18T09:54:42.873Z,991.36
2023-02-18T09:55:42.872Z,991.31
2023-02-18T09:56:42.843Z,991.29
2023-02-18T09:57:42.854Z,991.41
2023-02-18T09:58:42.848Z,991.38
2023-02-18T09:59:42.838Z,991.30
2023-02-18T10:00:42.806Z,991.26
2023-02-18T10:01:42.831Z,991.24
2023-02-18T10:02:42.786Z,991.09
2023-02-18T10:03:42.797Z,991.30
2023-02-18T10:04:42.773Z,991.21
2023-02-18T10:05:42.766Z,991.32
2023-02-18T10:06:42.767Z,991.31
2023-02-18T10:07:42.744Z,991.38
2023-02-18T10:08:42.737Z,991.43
2023-02-18T10:09:42.718Z,991.34
2023-02-18T10:10:42.752Z,991.33
2023-02-18T10:11:42.709Z,991.33
2023-02-18T10:12:42.701Z,991.31
2023-02-18T10:13:42.682Z,991.25
2023-02-18T10:14:42.707Z,991.15
2023-02-18T10:15:42.769Z,991.31
2023-02-18T10:16:42.646Z,991.23
2023-02-18T10:17:42.663Z,991.15
2023-02-18T10:18:42.658Z,991.26
2023-02-18T10:19:42.634Z,991.18
2023-02-18T10:20:42.638Z,991.23
2023-02-18T10:21:42.602Z,991.33
2023-02-18T10:22:42.594Z,991.24
2023-02-18T10:23:42.595Z,991.36
2023-02-18T10:24:42.599Z,991.27
2023-02-18T10:25:43.570Z,991.32
2023-02-18T10:26:42.580Z,991.29
2023-02-18T10:27:42.550Z,991.21
2023-02-18T10:28:42.541Z,991.34
2023-02-18T10:29:42.533Z,991.15
2023-02-18T10:30:42.541Z,991.17
2023-02-18T10:31:42.580Z,991.29
2023-02-18T10:32:42.514Z,991.27
2023-02-18T10:33:42.487Z,991.31
2023-02-18T10:34:42.470Z,991.23
2023-02-18T10:35:42.473Z,991.29
2023-02-18T10:36:42.473Z,991.24
2023-02-18T10:37:42.490Z,991.30
2023-02-18T10:38:42.448Z,991.25
2023-02-18T10:39:42.431Z,991.12
2023-02-18T10:40:42.414Z,991.01
2023-02-18T10:41:42.422Z,990.95
2023-02-18T10:42:42.416Z,991.02
2023-02-18T10:43:42.398Z,990.99
2023-02-18T10:44:42.400Z,991.01
2023-02-18T10:45:42.375Z,991.00
2023-02-18T10:46:42.426Z,990.93
2023-02-18T10:47:42.354Z,990.92
2023-02-18T10:48:42.332Z,990.99
2023-02-18T10:49:43.357Z,991.01
2023-02-18T10:50:42.326Z,990.95
2023-02-18T10:51:42.323Z,990.84
2023-02-18T10:52:42.305Z,990.84
2023-02-18T10:53:42.291Z,990.81
2023-02-18T10:54:42.275Z,990.86
2023-02-18T10:55:42.300Z,990.82
2023-02-18T10:56:42.316Z,990.72
2023-02-18T10:57:42.253Z,990.79
2023-02-18T10:58:42.242Z,990.70
2023-02-18T10:59:42.231Z,990.76
2023-02-18T11:00:42.222Z,990.77
2023-02-18T11:01:43.250Z,990.75
2023-02-18T11:02:42.217Z,990.66
2023-02-18T11:03:42.185Z,990.59
2023-02-18T11:04:42.319Z,990.72
2023-02-18T11:05:42.194Z,990.66
2023-02-18T11:06:42.162Z,990.60
2023-02-18T11:07:42.150Z,990.56
2023-02-18T11:08:42.149Z,990.45
2023-02-18T11:09:42.766Z,990.54
2023-02-18T11:10:42.138Z,990.60
2023-02-18T11:11:42.763Z,990.58
2023-02-18T11:12:42.094Z,990.69
2023-02-18T11:13:42.098Z,990.65
2023-02-18T11:14:42.078Z,990.70
2023-02-18T11:15:42.151Z,990.64
2023-02-18T11:16:42.073Z,990.62
2023-02-18T11:17:42.046Z,990.66
2023-02-18T11:18:42.069Z,990.67
2023-02-18T11:19:42.028Z,990.60
2023-02-18T11:20:42.014Z,990.64
2023-02-18T11:21:42.027Z,990.56
2023-02-18T11:22:42.006Z,990.54
2023-02-18T11:23:42.014Z,990.63
2023-02-18T11:24:41.975Z,990.67
2023-02-18T11:25:41.973Z,990.59
2023-02-18T11:26:41.972Z,990.76
2023-02-18T11:27:41.947Z,990.71
2023-02-18T11:28:41.970Z,990.69
2023-02-18T11:29:41.928Z,990.67
2023-02-18T11:30:42.027Z,990.61
2023-02-18T11:31:42.019Z,990.91
2023-02-18T11:32:41.900Z,990.83
2023-02-18T11:33:41.918Z,990.92
2023-02-18T11:34:41.904Z,991.01
2023-02-18T11:35:41.887Z,990.80
2023-02-18T11:36:41.865Z,990.75
2023-02-18T11:37:41.892Z,990.69
2023-02-18T11:38:41.846Z,990.70
2023-02-18T11:39:41.855Z,990.66
2023-02-18T11:40:41.826Z,990.57
2023-02-18T11:41:41.814Z,990.84
2023-02-18T11:42:41.820Z,990.75
2023-02-18T11:43:41.787Z,990.90
2023-02-18T11:44:41.782Z,990.82
2023-02-18T11:45:41.834Z,990.85
2023-02-18T11:46:41.846Z,990.76
2023-02-18T11:47:41.759Z,990.74
2023-02-18T11:48:41.746Z,990.73
2023-02-18T11:49:41.741Z,990.74
2023-02-18T11:50:41.753Z,990.76
2023-02-18T11:51:41.738Z,990.79
2023-02-18T11:52:41.709Z,990.64
2023-02-18T11:53:41.694Z,990.79
2023-02-18T11:54:41.684Z,990.85
2023-02-18T11:55:41.686Z,990.80
2023-02-18T11:56:41.681Z,990.87
2023-02-18T11:57:41.674Z,990.86
2023-02-18T11:58:41.652Z,991.03
2023-02-18T11:59:41.646Z,990.92
2023-02-18T12:00:41.634Z,990.85
2023-02-18T12:01:41.661Z,990.71
2023-02-18T12:02:41.621Z,990.65
2023-02-18T12:03:41.612Z,990.68
2023-02-18T12:04:41.641Z,990.68
2023-02-18T12:05:41.584Z,990.78
2023-02-18T12:06:41.583Z,990.75
2023-02-18T12:07:41.573Z,990.76
2023-02-18T12:08:41.554Z,990.66
2023-02-18T12:09:41.549Z,990.72
2023-02-18T12:10:41.555Z,990.58
2023-02-18T12:11:41.527Z,990.67
2023-02-18T12:12:41.511Z,990.80
2023-02-18T12:13:41.495Z,990.81
2023-02-18T12:14:41.520Z,990.78
2023-02-18T12:15:41.493Z,990.76
2023-02-18T12:16:41.527Z,990.84
2023-02-18T12:17:41.479Z,990.85
2023-02-18T12:18:42.869Z,990.70
2023-02-18T12:19:42.434Z,990.80
2023-02-18T12:20:41.452Z,990.78
2023-02-18T12:21:41.454Z,990.88
2023-02-18T12:22:41.414Z,990.69
2023-02-18T12:23:41.411Z,990.77
2023-02-18T12:24:41.377Z,990.78
2023-02-18T12:25:41.381Z,990.64
2023-02-18T12:26:41.389Z,990.63
2023-02-18T12:27:41.362Z,990.80
2023-02-18T12:28:41.366Z,990.62